sensor_id;sensor_type;location;lat;lon;timestamp;temperature;humidity
2647;DHT22;1333;50.958;6.770;2023-07-28T00:01:55;18.10;99.90
2647;DHT22;1333;50.958;6.770;2023-07-28T00:04:20;18.10;99.90
2647;DHT22;1333;50.958;6.770;2023-07-28T00:06:46;18.10;99.90
2647;DHT22;1333;50.958;6.770;2023-07-28T00:09:11;18.20;99.90
2647;DHT22;1333;50.958;6.770;2023-07-28T00:11:37;18.20;99.90
2647;DHT22;1333;50.958;6.770;2023-07-28T00:14:02;18.20;99.90
2647;DHT22;1333;50.958;6.770;2023-07-28T00:16:28;18.20;99.90
2647;DHT22;1333;50.958;6.770;2023-07-28T00:18:53;18.20;99.90
2647;DHT22;1333;50.958;6.770;2023-07-28T00:21:19;18.20;99.90
2647;DHT22;1333;50.958;6.770;2023-07-28T00:23:44;18.20;99.90
2647;DHT22;1333;50.958;6.770;2023-07-28T00:26:10;18.20;99.90
2647;DHT22;1333;50.958;6.770;2023-07-28T00:28:35;18.20;99.90
2647;DHT22;1333;50.958;6.770;2023-07-28T00:31:01;18.20;99.90
2647;DHT22;1333;50.958;6.770;2023-07-28T00:33:26;18.20;99.90
2647;DHT22;1333;50.958;6.770;2023-07-28T00:35:52;18.20;99.90
2647;DHT22;1333;50.958;6.770;2023-07-28T00:38:17;18.30;99.90
2647;DHT22;1333;50.958;6.770;2023-07-28T00:40:43;18.30;99.90
2647;DHT22;1333;50.958;6.770;2023-07-28T00:43:09;18.20;99.90
2647;DHT22;1333;50.958;6.770;2023-07-28T00:45:35;18.20;99.90
2647;DHT22;1333;50.958;6.770;2023-07-28T00:48:01;18.20;99.90
2647;DHT22;1333;50.958;6.770;2023-07-28T00:50:27;18.20;99.90
2647;DHT22;1333;50.958;6.770;2023-07-28T00:52:53;18.20;99.90
2647;DHT22;1333;50.958;6.770;2023-07-28T00:55:21;18.20;99.90
2647;DHT22;1333;50.958;6.770;2023-07-28T00:57:47;18.20;99.90
2647;DHT22;1333;50.958;6.770;2023-07-28T01:00:13;18.20;99.90
2647;DHT22;1333;50.958;6.770;2023-07-28T01:02:38;18.20;99.90
2647;DHT22;1333;50.958;6.770;2023-07-28T01:05:04;18.20;99.90
2647;DHT22;1333;50.958;6.770;2023-07-28T01:07:38;18.20;99.90
2647;DHT22;1333;50.958;6.770;2023-07-28T01:10:17;18.30;99.90
2647;DHT22;1333;50.958;6.770;2023-07-28T01:12:43;18.30;99.90
2647;DHT22;1333;50.958;6.770;2023-07-28T01:15:09;18.30;99.90
2647;DHT22;1333;50.958;6.770;2023-07-28T01:17:34;18.30;99.90
2647;DHT22;1333;50.958;6.770;2023-07-28T01:20:00;18.30;99.90
2647;DHT22;1333;50.958;6.770;2023-07-28T01:27:41;18.40;99.90
2647;DHT22;1333;50.958;6.770;2023-07-28T01:30:09;18.40;99.90
2647;DHT22;1333;50.958;6.770;2023-07-28T01:32:35;18.40;99.90
2647;DHT22;1333;50.958;6.770;2023-07-28T01:35:02;18.40;99.90
2647;DHT22;1333;50.958;6.770;2023-07-28T01:37:28;18.40;99.90
2647;DHT22;1333;50.958;6.770;2023-07-28T01:39:54;18.40;99.90
2647;DHT22;1333;50.958;6.770;2023-07-28T01:42:20;18.40;99.90
2647;DHT22;1333;50.958;6.770;2023-07-28T01:44:45;18.40;99.90
2647;DHT22;1333;50.958;6.770;2023-07-28T01:47:11;18.40;99.90
2647;DHT22;1333;50.958;6.770;2023-07-28T01:49:36;18.40;99.90
2647;DHT22;1333;50.958;6.770;2023-07-28T01:52:02;18.40;99.90
2647;DHT22;1333;50.958;6.770;2023-07-28T01:54:28;18.40;99.90
2647;DHT22;1333;50.958;6.770;2023-07-28T01:56:53;18.40;99.90
2647;DHT22;1333;50.958;6.770;2023-07-28T01:59:19;18.40;99.90
2647;DHT22;1333;50.958;6.770;2023-07-28T02:01:45;18.40;99.90
2647;DHT22;1333;50.958;6.770;2023-07-28T02:04:11;18.30;99.90
2647;DHT22;1333;50.958;6.770;2023-07-28T02:06:37;18.30;99.90
2647;DHT22;1333;50.958;6.770;2023-07-28T02:09:02;18.30;99.90
2647;DHT22;1333;50.958;6.770;2023-07-28T02:11:28;18.30;99.90
2647;DHT22;1333;50.958;6.770;2023-07-28T02:13:53;18.30;99.90
2647;DHT22;1333;50.958;6.770;2023-07-28T02:16:19;18.30;99.90
2647;DHT22;1333;50.958;6.770;2023-07-28T02:18:44;18.30;99.90
2647;DHT22;1333;50.958;6.770;2023-07-28T02:21:10;18.30;99.90
2647;DHT22;1333;50.958;6.770;2023-07-28T02:23:35;18.30;99.90
2647;DHT22;1333;50.958;6.770;2023-07-28T02:26:01;18.30;99.90
2647;DHT22;1333;50.958;6.770;2023-07-28T02:28:26;18.20;99.90
2647;DHT22;1333;50.958;6.770;2023-07-28T02:30:52;18.20;99.90
2647;DHT22;1333;50.958;6.770;2023-07-28T02:33:17;18.20;99.90
2647;DHT22;1333;50.958;6.770;2023-07-28T02:35:43;18.20;99.90
2647;DHT22;1333;50.958;6.770;2023-07-28T02:38:08;18.20;99.90
2647;DHT22;1333;50.958;6.770;2023-07-28T02:40:34;18.20;99.90
2647;DHT22;1333;50.958;6.770;2023-07-28T02:42:59;18.20;99.90
2647;DHT22;1333;50.958;6.770;2023-07-28T02:45:25;18.20;99.90
2647;DHT22;1333;50.958;6.770;2023-07-28T02:47:51;18.20;99.90
2647;DHT22;1333;50.958;6.770;2023-07-28T02:50:16;18.20;99.90
2647;DHT22;1333;50.958;6.770;2023-07-28T02:52:42;18.20;99.90
2647;DHT22;1333;50.958;6.770;2023-07-28T02:55:08;18.20;99.90
2647;DHT22;1333;50.958;6.770;2023-07-28T02:57:33;18.20;99.90
2647;DHT22;1333;50.958;6.770;2023-07-28T02:59:59;18.20;99.90
2647;DHT22;1333;50.958;6.770;2023-07-28T03:02:24;18.20;99.90
2647;DHT22;1333;50.958;6.770;2023-07-28T03:04:50;18.20;99.90
2647;DHT22;1333;50.958;6.770;2023-07-28T03:07:15;18.30;99.90
2647;DHT22;1333;50.958;6.770;2023-07-28T03:09:41;18.20;99.90
2647;DHT22;1333;50.958;6.770;2023-07-28T03:12:07;18.30;99.90
2647;DHT22;1333;50.958;6.770;2023-07-28T03:14:33;18.30;99.90
2647;DHT22;1333;50.958;6.770;2023-07-28T03:16:58;18.30;99.90
2647;DHT22;1333;50.958;6.770;2023-07-28T03:19:24;18.40;99.90
2647;DHT22;1333;50.958;6.770;2023-07-28T03:21:49;18.40;99.90
2647;DHT22;1333;50.958;6.770;2023-07-28T03:24:15;18.30;99.90
2647;DHT22;1333;50.958;6.770;2023-07-28T03:26:40;18.30;99.90
2647;DHT22;1333;50.958;6.770;2023-07-28T03:29:06;18.40;99.90
2647;DHT22;1333;50.958;6.770;2023-07-28T03:31:31;18.40;99.90
2647;DHT22;1333;50.958;6.770;2023-07-28T03:34:01;18.30;99.90
2647;DHT22;1333;50.958;6.770;2023-07-28T03:36:26;18.30;99.90
2647;DHT22;1333;50.958;6.770;2023-07-28T03:38:52;18.30;99.90
2647;DHT22;1333;50.958;6.770;2023-07-28T03:41:17;18.40;99.90
2647;DHT22;1333;50.958;6.770;2023-07-28T03:43:43;18.30;99.90
2647;DHT22;1333;50.958;6.770;2023-07-28T03:46:08;18.20;99.90
2647;DHT22;1333;50.958;6.770;2023-07-28T03:48:34;18.20;99.90
2647;DHT22;1333;50.958;6.770;2023-07-28T03:51:00;18.20;99.90
2647;DHT22;1333;50.958;6.770;2023-07-28T03:53:25;18.20;99.90
2647;DHT22;1333;50.958;6.770;2023-07-28T03:55:51;18.30;99.90
2647;DHT22;1333;50.958;6.770;2023-07-28T03:58:16;18.30;99.90
2647;DHT22;1333;50.958;6.770;2023-07-28T04:00:42;18.30;99.90
2647;DHT22;1333;50.958;6.770;2023-07-28T04:03:07;18.30;99.90
2647;DHT22;1333;50.958;6.770;2023-07-28T04:05:33;18.30;99.90
2647;DHT22;1333;50.958;6.770;2023-07-28T04:08:01;18.30;99.90
2647;DHT22;1333;50.958;6.770;2023-07-28T04:10:27;18.30;99.90
2647;DHT22;1333;50.958;6.770;2023-07-28T04:12:52;18.30;99.90
2647;DHT22;1333;50.958;6.770;2023-07-28T04:15:18;18.30;99.90
2647;DHT22;1333;50.958;6.770;2023-07-28T04:17:43;18.30;99.90
2647;DHT22;1333;50.958;6.770;2023-07-28T04:20:09;18.30;99.90
2647;DHT22;1333;50.958;6.770;2023-07-28T04:22:35;18.30;99.90
2647;DHT22;1333;50.958;6.770;2023-07-28T04:25:00;18.40;99.90
2647;DHT22;1333;50.958;6.770;2023-07-28T04:27:26;18.30;99.90
2647;DHT22;1333;50.958;6.770;2023-07-28T04:29:51;18.40;99.90
2647;DHT22;1333;50.958;6.770;2023-07-28T04:32:17;18.40;99.90
2647;DHT22;1333;50.958;6.770;2023-07-28T04:34:42;18.50;99.90
2647;DHT22;1333;50.958;6.770;2023-07-28T04:37:08;18.50;99.90
2647;DHT22;1333;50.958;6.770;2023-07-28T04:39:34;18.50;99.90
2647;DHT22;1333;50.958;6.770;2023-07-28T04:41:59;18.50;99.90
2647;DHT22;1333;50.958;6.770;2023-07-28T04:44:25;18.50;99.90
2647;DHT22;1333;50.958;6.770;2023-07-28T04:46:50;18.60;99.90
2647;DHT22;1333;50.958;6.770;2023-07-28T04:49:16;18.60;99.90
2647;DHT22;1333;50.958;6.770;2023-07-28T04:51:41;18.60;99.90
2647;DHT22;1333;50.958;6.770;2023-07-28T04:54:07;18.60;99.90
2647;DHT22;1333;50.958;6.770;2023-07-28T04:56:32;18.60;99.90
2647;DHT22;1333;50.958;6.770;2023-07-28T04:58:58;18.70;99.90
2647;DHT22;1333;50.958;6.770;2023-07-28T05:01:24;18.70;99.90
2647;DHT22;1333;50.958;6.770;2023-07-28T05:03:49;18.80;99.90
2647;DHT22;1333;50.958;6.770;2023-07-28T05:06:15;18.80;99.90
2647;DHT22;1333;50.958;6.770;2023-07-28T05:08:41;18.80;99.90
2647;DHT22;1333;50.958;6.770;2023-07-28T05:11:06;18.90;99.90
2647;DHT22;1333;50.958;6.770;2023-07-28T05:13:32;19.00;99.90
2647;DHT22;1333;50.958;6.770;2023-07-28T05:15:57;19.00;99.90
2647;DHT22;1333;50.958;6.770;2023-07-28T05:18:23;19.00;99.90
2647;DHT22;1333;50.958;6.770;2023-07-28T05:20:48;19.00;99.90
2647;DHT22;1333;50.958;6.770;2023-07-28T05:23:14;19.10;99.90
2647;DHT22;1333;50.958;6.770;2023-07-28T05:25:39;19.10;99.90
2647;DHT22;1333;50.958;6.770;2023-07-28T05:28:05;19.00;99.90
2647;DHT22;1333;50.958;6.770;2023-07-28T05:30:31;19.10;99.90
2647;DHT22;1333;50.958;6.770;2023-07-28T05:32:56;19.10;99.90
2647;DHT22;1333;50.958;6.770;2023-07-28T05:35:22;19.10;99.90
2647;DHT22;1333;50.958;6.770;2023-07-28T05:37:47;19.10;99.90
2647;DHT22;1333;50.958;6.770;2023-07-28T05:40:13;19.10;99.90
2647;DHT22;1333;50.958;6.770;2023-07-28T05:42:38;19.20;99.90
2647;DHT22;1333;50.958;6.770;2023-07-28T05:45:04;19.20;99.90
2647;DHT22;1333;50.958;6.770;2023-07-28T05:47:30;19.20;99.90
2647;DHT22;1333;50.958;6.770;2023-07-28T05:49:55;19.30;99.90
2647;DHT22;1333;50.958;6.770;2023-07-28T05:52:21;19.30;99.90
2647;DHT22;1333;50.958;6.770;2023-07-28T05:54:48;19.30;99.90
2647;DHT22;1333;50.958;6.770;2023-07-28T05:57:13;19.30;99.90
2647;DHT22;1333;50.958;6.770;2023-07-28T05:59:39;19.40;99.90
2647;DHT22;1333;50.958;6.770;2023-07-28T06:02:04;19.40;99.90
2647;DHT22;1333;50.958;6.770;2023-07-28T06:04:30;19.50;99.90
2647;DHT22;1333;50.958;6.770;2023-07-28T06:06:55;19.50;99.90
2647;DHT22;1333;50.958;6.770;2023-07-28T06:09:21;19.60;99.90
2647;DHT22;1333;50.958;6.770;2023-07-28T06:11:47;19.60;99.90
2647;DHT22;1333;50.958;6.770;2023-07-28T06:14:12;19.60;99.90
2647;DHT22;1333;50.958;6.770;2023-07-28T06:16:38;19.50;99.90
2647;DHT22;1333;50.958;6.770;2023-07-28T06:19:03;19.50;99.90
2647;DHT22;1333;50.958;6.770;2023-07-28T06:21:29;19.50;99.90
2647;DHT22;1333;50.958;6.770;2023-07-28T06:23:55;19.50;99.90
2647;DHT22;1333;50.958;6.770;2023-07-28T06:26:20;19.50;99.90
2647;DHT22;1333;50.958;6.770;2023-07-28T06:28:46;19.50;99.90
2647;DHT22;1333;50.958;6.770;2023-07-28T06:31:12;19.60;99.90
2647;DHT22;1333;50.958;6.770;2023-07-28T06:33:37;19.60;99.90
2647;DHT22;1333;50.958;6.770;2023-07-28T06:36:04;19.70;99.90
2647;DHT22;1333;50.958;6.770;2023-07-28T06:38:29;19.80;99.90
2647;DHT22;1333;50.958;6.770;2023-07-28T06:40:55;19.80;99.90
2647;DHT22;1333;50.958;6.770;2023-07-28T06:43:20;19.70;99.90
2647;DHT22;1333;50.958;6.770;2023-07-28T06:45:46;19.70;99.90
2647;DHT22;1333;50.958;6.770;2023-07-28T06:48:12;19.70;99.90
2647;DHT22;1333;50.958;6.770;2023-07-28T06:50:37;19.70;99.90
2647;DHT22;1333;50.958;6.770;2023-07-28T06:53:02;19.70;99.90
2647;DHT22;1333;50.958;6.770;2023-07-28T06:55:28;19.80;99.90
2647;DHT22;1333;50.958;6.770;2023-07-28T06:57:54;19.70;99.90
2647;DHT22;1333;50.958;6.770;2023-07-28T07:00:19;19.80;99.90
2647;DHT22;1333;50.958;6.770;2023-07-28T07:02:45;19.90;99.90
2647;DHT22;1333;50.958;6.770;2023-07-28T07:05:10;20.00;99.90
2647;DHT22;1333;50.958;6.770;2023-07-28T07:07:38;20.10;99.90
2647;DHT22;1333;50.958;6.770;2023-07-28T07:10:04;20.20;99.90
2647;DHT22;1333;50.958;6.770;2023-07-28T07:12:30;20.30;99.90
2647;DHT22;1333;50.958;6.770;2023-07-28T07:14:56;20.30;99.90
2647;DHT22;1333;50.958;6.770;2023-07-28T07:17:21;20.40;99.90
2647;DHT22;1333;50.958;6.770;2023-07-28T07:19:47;20.40;99.90
2647;DHT22;1333;50.958;6.770;2023-07-28T07:22:12;20.50;99.90
2647;DHT22;1333;50.958;6.770;2023-07-28T07:24:38;20.50;99.90
2647;DHT22;1333;50.958;6.770;2023-07-28T07:27:03;20.40;99.90
2647;DHT22;1333;50.958;6.770;2023-07-28T07:29:29;20.50;99.90
2647;DHT22;1333;50.958;6.770;2023-07-28T07:31:55;20.50;99.90
2647;DHT22;1333;50.958;6.770;2023-07-28T07:34:22;20.50;99.90
2647;DHT22;1333;50.958;6.770;2023-07-28T07:36:48;20.50;99.90
2647;DHT22;1333;50.958;6.770;2023-07-28T07:39:14;20.50;99.90
2647;DHT22;1333;50.958;6.770;2023-07-28T07:41:40;20.50;99.90
2647;DHT22;1333;50.958;6.770;2023-07-28T07:44:05;20.60;99.90
2647;DHT22;1333;50.958;6.770;2023-07-28T07:46:31;20.80;99.90
2647;DHT22;1333;50.958;6.770;2023-07-28T07:48:56;20.90;99.90
2647;DHT22;1333;50.958;6.770;2023-07-28T07:51:22;21.10;99.90
2647;DHT22;1333;50.958;6.770;2023-07-28T07:53:47;21.30;99.90
2647;DHT22;1333;50.958;6.770;2023-07-28T07:56:13;21.60;99.90
2647;DHT22;1333;50.958;6.770;2023-07-28T07:58:38;21.80;99.90
2647;DHT22;1333;50.958;6.770;2023-07-28T08:01:04;22.30;99.90
2647;DHT22;1333;50.958;6.770;2023-07-28T08:03:30;22.80;99.90
2647;DHT22;1333;50.958;6.770;2023-07-28T08:05:57;23.20;99.90
2647;DHT22;1333;50.958;6.770;2023-07-28T08:08:23;23.60;99.90
2647;DHT22;1333;50.958;6.770;2023-07-28T08:10:49;23.90;99.90
2647;DHT22;1333;50.958;6.770;2023-07-28T08:13:15;24.50;99.90
2647;DHT22;1333;50.958;6.770;2023-07-28T08:15:45;25.00;99.90
2647;DHT22;1333;50.958;6.770;2023-07-28T08:18:14;25.20;99.90
2647;DHT22;1333;50.958;6.770;2023-07-28T08:20:40;25.10;99.90
2647;DHT22;1333;50.958;6.770;2023-07-28T08:23:05;25.00;99.90
2647;DHT22;1333;50.958;6.770;2023-07-28T08:25:31;25.20;99.90
2647;DHT22;1333;50.958;6.770;2023-07-28T08:27:56;25.30;99.90
2647;DHT22;1333;50.958;6.770;2023-07-28T08:30:22;25.60;99.90
2647;DHT22;1333;50.958;6.770;2023-07-28T08:32:48;25.80;99.90
2647;DHT22;1333;50.958;6.770;2023-07-28T08:35:14;26.10;99.90
2647;DHT22;1333;50.958;6.770;2023-07-28T08:37:39;26.10;99.90
2647;DHT22;1333;50.958;6.770;2023-07-28T08:40:05;26.10;99.90
2647;DHT22;1333;50.958;6.770;2023-07-28T08:42:36;26.00;99.90
2647;DHT22;1333;50.958;6.770;2023-07-28T08:45:04;26.20;99.90
2647;DHT22;1333;50.958;6.770;2023-07-28T08:47:34;26.60;99.90
2647;DHT22;1333;50.958;6.770;2023-07-28T08:49:59;26.90;99.90
2647;DHT22;1333;50.958;6.770;2023-07-28T08:52:25;27.70;99.90
2647;DHT22;1333;50.958;6.770;2023-07-28T08:54:50;29.00;99.90
2647;DHT22;1333;50.958;6.770;2023-07-28T08:57:16;31.70;99.90
2647;DHT22;1333;50.958;6.770;2023-07-28T08:59:42;34.40;99.90
2647;DHT22;1333;50.958;6.770;2023-07-28T09:02:14;37.50;99.90
2647;DHT22;1333;50.958;6.770;2023-07-28T09:04:42;40.50;81.40
2647;DHT22;1333;50.958;6.770;2023-07-28T09:07:07;42.90;63.70
2647;DHT22;1333;50.958;6.770;2023-07-28T09:09:34;43.90;49.10
2647;DHT22;1333;50.958;6.770;2023-07-28T09:12:01;44.70;46.00
2647;DHT22;1333;50.958;6.770;2023-07-28T09:14:27;45.40;41.80
2647;DHT22;1333;50.958;6.770;2023-07-28T09:16:53;45.90;41.10
2647;DHT22;1333;50.958;6.770;2023-07-28T09:19:20;46.80;40.10
2647;DHT22;1333;50.958;6.770;2023-07-28T09:21:57;47.40;39.50
2647;DHT22;1333;50.958;6.770;2023-07-28T09:24:30;46.70;35.60
2647;DHT22;1333;50.958;6.770;2023-07-28T09:26:58;46.70;35.90
2647;DHT22;1333;50.958;6.770;2023-07-28T09:29:24;46.00;36.50
2647;DHT22;1333;50.958;6.770;2023-07-28T09:31:51;44.80;36.60
2647;DHT22;1333;50.958;6.770;2023-07-28T09:34:25;42.80;37.30
2647;DHT22;1333;50.958;6.770;2023-07-28T09:36:53;40.60;39.40
2647;DHT22;1333;50.958;6.770;2023-07-28T09:39:19;38.10;40.80
2647;DHT22;1333;50.958;6.770;2023-07-28T09:41:46;36.40;44.30
2647;DHT22;1333;50.958;6.770;2023-07-28T09:44:12;35.20;46.10
2647;DHT22;1333;50.958;6.770;2023-07-28T09:46:52;34.10;47.90
2647;DHT22;1333;50.958;6.770;2023-07-28T09:49:27;33.30;50.50
2647;DHT22;1333;50.958;6.770;2023-07-28T09:51:54;32.90;53.10
2647;DHT22;1333;50.958;6.770;2023-07-28T09:54:29;33.00;54.80
2647;DHT22;1333;50.958;6.770;2023-07-28T09:56:58;32.90;54.70
2647;DHT22;1333;50.958;6.770;2023-07-28T09:59:29;32.40;55.00
2647;DHT22;1333;50.958;6.770;2023-07-28T10:01:58;32.20;57.50
2647;DHT22;1333;50.958;6.770;2023-07-28T10:04:24;32.50;58.80
2647;DHT22;1333;50.958;6.770;2023-07-28T10:06:51;32.10;58.30
2647;DHT22;1333;50.958;6.770;2023-07-28T10:09:17;31.10;59.70
2647;DHT22;1333;50.958;6.770;2023-07-28T10:11:43;30.00;71.10
2647;DHT22;1333;50.958;6.770;2023-07-28T10:14:08;29.10;96.10
2647;DHT22;1333;50.958;6.770;2023-07-28T10:16:38;28.30;99.90
2647;DHT22;1333;50.958;6.770;2023-07-28T10:19:04;27.70;99.90
2647;DHT22;1333;50.958;6.770;2023-07-28T10:21:31;27.30;99.90
2647;DHT22;1333;50.958;6.770;2023-07-28T10:23:58;27.20;99.90
2647;DHT22;1333;50.958;6.770;2023-07-28T10:26:39;27.20;99.90
2647;DHT22;1333;50.958;6.770;2023-07-28T10:29:15;27.30;99.90
2647;DHT22;1333;50.958;6.770;2023-07-28T10:31:52;27.60;99.90
2647;DHT22;1333;50.958;6.770;2023-07-28T10:34:18;27.90;99.90
2647;DHT22;1333;50.958;6.770;2023-07-28T10:36:44;28.00;99.90
2647;DHT22;1333;50.958;6.770;2023-07-28T10:39:16;29.00;99.90
2647;DHT22;1333;50.958;6.770;2023-07-28T10:42:07;32.10;99.90
2647;DHT22;1333;50.958;6.770;2023-07-28T10:44:34;35.70;98.90
2647;DHT22;1333;50.958;6.770;2023-07-28T10:47:00;38.70;76.70
2647;DHT22;1333;50.958;6.770;2023-07-28T10:49:27;39.70;57.00
2647;DHT22;1333;50.958;6.770;2023-07-28T10:51:52;40.10;53.20
2647;DHT22;1333;50.958;6.770;2023-07-28T10:54:18;39.30;50.80
2647;DHT22;1333;50.958;6.770;2023-07-28T10:56:46;37.40;50.40
2647;DHT22;1333;50.958;6.770;2023-07-28T10:59:12;35.80;53.00
2647;DHT22;1333;50.958;6.770;2023-07-28T11:01:39;34.60;56.60
2647;DHT22;1333;50.958;6.770;2023-07-28T11:04:10;33.80;59.50
2647;DHT22;1333;50.958;6.770;2023-07-28T11:06:38;33.30;63.80
2647;DHT22;1333;50.958;6.770;2023-07-28T11:09:08;34.00;67.60
2647;DHT22;1333;50.958;6.770;2023-07-28T11:11:35;35.50;64.00
2647;DHT22;1333;50.958;6.770;2023-07-28T11:14:05;36.50;59.60
2647;DHT22;1333;50.958;6.770;2023-07-28T11:16:36;36.60;57.80
2647;DHT22;1333;50.958;6.770;2023-07-28T11:19:03;36.00;57.60
2647;DHT22;1333;50.958;6.770;2023-07-28T11:21:36;34.90;57.40
2647;DHT22;1333;50.958;6.770;2023-07-28T11:24:03;34.30;58.90
2647;DHT22;1333;50.958;6.770;2023-07-28T11:26:28;33.90;60.00
2647;DHT22;1333;50.958;6.770;2023-07-28T11:28:54;33.80;62.80
2647;DHT22;1333;50.958;6.770;2023-07-28T11:31:23;34.30;63.60
2647;DHT22;1333;50.958;6.770;2023-07-28T11:33:50;35.20;59.80
2647;DHT22;1333;50.958;6.770;2023-07-28T11:36:28;36.30;58.10
2647;DHT22;1333;50.958;6.770;2023-07-28T11:38:55;37.10;56.00
2647;DHT22;1333;50.958;6.770;2023-07-28T11:41:22;37.90;54.70
2647;DHT22;1333;50.958;6.770;2023-07-28T11:43:49;38.00;51.20
2647;DHT22;1333;50.958;6.770;2023-07-28T11:46:37;38.30;52.00
2647;DHT22;1333;50.958;6.770;2023-07-28T11:51:39;39.50;49.50
2647;DHT22;1333;50.958;6.770;2023-07-28T11:54:11;39.90;48.50
2647;DHT22;1333;50.958;6.770;2023-07-28T11:56:36;40.20;49.00
2647;DHT22;1333;50.958;6.770;2023-07-28T11:59:02;40.90;48.30
2647;DHT22;1333;50.958;6.770;2023-07-28T12:01:28;41.60;47.20
2647;DHT22;1333;50.958;6.770;2023-07-28T12:03:54;42.20;45.30
2647;DHT22;1333;50.958;6.770;2023-07-28T12:06:19;42.10;42.60
2647;DHT22;1333;50.958;6.770;2023-07-28T12:08:45;40.80;42.60
2647;DHT22;1333;50.958;6.770;2023-07-28T12:11:14;39.90;44.20
2647;DHT22;1333;50.958;6.770;2023-07-28T12:13:50;39.40;45.10
2647;DHT22;1333;50.958;6.770;2023-07-28T12:16:51;38.90;45.90
2647;DHT22;1333;50.958;6.770;2023-07-28T12:19:17;38.20;46.20
2647;DHT22;1333;50.958;6.770;2023-07-28T12:21:42;37.60;47.50
2647;DHT22;1333;50.958;6.770;2023-07-28T12:24:08;36.50;47.40
2647;DHT22;1333;50.958;6.770;2023-07-28T12:26:33;35.00;49.10
2647;DHT22;1333;50.958;6.770;2023-07-28T12:28:59;33.50;51.30
2647;DHT22;1333;50.958;6.770;2023-07-28T12:31:24;32.50;53.90
2647;DHT22;1333;50.958;6.770;2023-07-28T12:33:50;31.80;56.40
2647;DHT22;1333;50.958;6.770;2023-07-28T12:36:15;31.30;58.90
2647;DHT22;1333;50.958;6.770;2023-07-28T12:38:42;30.90;61.80
2647;DHT22;1333;50.958;6.770;2023-07-28T12:41:08;30.40;64.00
2647;DHT22;1333;50.958;6.770;2023-07-28T12:43:34;30.10;67.60
2647;DHT22;1333;50.958;6.770;2023-07-28T12:46:00;29.90;73.50
2647;DHT22;1333;50.958;6.770;2023-07-28T12:48:25;29.50;78.20
2647;DHT22;1333;50.958;6.770;2023-07-28T12:50:50;29.10;89.50
2647;DHT22;1333;50.958;6.770;2023-07-28T12:53:16;28.80;96.40
2647;DHT22;1333;50.958;6.770;2023-07-28T12:55:42;28.40;99.90
2647;DHT22;1333;50.958;6.770;2023-07-28T12:58:08;28.00;99.90
2647;DHT22;1333;50.958;6.770;2023-07-28T13:00:34;28.00;99.90
2647;DHT22;1333;50.958;6.770;2023-07-28T13:02:59;27.90;99.90
2647;DHT22;1333;50.958;6.770;2023-07-28T13:05:25;27.80;99.90
2647;DHT22;1333;50.958;6.770;2023-07-28T13:07:50;27.70;99.90
2647;DHT22;1333;50.958;6.770;2023-07-28T13:10:16;27.90;99.90
2647;DHT22;1333;50.958;6.770;2023-07-28T13:12:42;27.80;99.90
2647;DHT22;1333;50.958;6.770;2023-07-28T13:15:07;28.00;99.90
2647;DHT22;1333;50.958;6.770;2023-07-28T13:17:33;29.00;99.90
2647;DHT22;1333;50.958;6.770;2023-07-28T13:19:58;29.90;99.90
2647;DHT22;1333;50.958;6.770;2023-07-28T13:22:24;30.40;99.90
2647;DHT22;1333;50.958;6.770;2023-07-28T13:24:52;30.70;99.90
2647;DHT22;1333;50.958;6.770;2023-07-28T13:27:17;30.70;99.90
2647;DHT22;1333;50.958;6.770;2023-07-28T13:29:43;30.40;99.90
2647;DHT22;1333;50.958;6.770;2023-07-28T13:32:22;30.00;99.90
2647;DHT22;1333;50.958;6.770;2023-07-28T13:34:48;29.70;99.90
2647;DHT22;1333;50.958;6.770;2023-07-28T13:37:13;29.70;99.90
2647;DHT22;1333;50.958;6.770;2023-07-28T13:39:39;29.70;99.90
2647;DHT22;1333;50.958;6.770;2023-07-28T13:42:04;30.00;99.90
2647;DHT22;1333;50.958;6.770;2023-07-28T13:44:30;30.50;99.90
2647;DHT22;1333;50.958;6.770;2023-07-28T13:46:55;30.80;99.70
2647;DHT22;1333;50.958;6.770;2023-07-28T13:49:21;31.40;99.90
2647;DHT22;1333;50.958;6.770;2023-07-28T13:51:47;32.00;95.80
2647;DHT22;1333;50.958;6.770;2023-07-28T13:54:12;31.90;90.20
2647;DHT22;1333;50.958;6.770;2023-07-28T13:56:38;31.40;88.70
2647;DHT22;1333;50.958;6.770;2023-07-28T13:59:03;30.80;91.40
2647;DHT22;1333;50.958;6.770;2023-07-28T14:01:30;30.70;94.40
2647;DHT22;1333;50.958;6.770;2023-07-28T14:03:55;30.60;93.90
2647;DHT22;1333;50.958;6.770;2023-07-28T14:06:21;30.40;94.20
2647;DHT22;1333;50.958;6.770;2023-07-28T14:08:46;30.40;95.10
2647;DHT22;1333;50.958;6.770;2023-07-28T14:11:12;30.20;94.50
2647;DHT22;1333;50.958;6.770;2023-07-28T14:13:38;30.20;97.50
2647;DHT22;1333;50.958;6.770;2023-07-28T14:16:04;30.20;97.50
2647;DHT22;1333;50.958;6.770;2023-07-28T14:18:30;30.40;96.40
2647;DHT22;1333;50.958;6.770;2023-07-28T14:20:55;30.50;96.60
2647;DHT22;1333;50.958;6.770;2023-07-28T14:23:26;30.60;95.40
2647;DHT22;1333;50.958;6.770;2023-07-28T14:25:52;30.70;94.40
2647;DHT22;1333;50.958;6.770;2023-07-28T14:28:18;30.30;94.30
2647;DHT22;1333;50.958;6.770;2023-07-28T14:30:44;30.00;96.20
2647;DHT22;1333;50.958;6.770;2023-07-28T14:33:17;29.70;97.30
2647;DHT22;1333;50.958;6.770;2023-07-28T14:35:44;29.50;99.50
2647;DHT22;1333;50.958;6.770;2023-07-28T14:38:10;29.20;99.90
2647;DHT22;1333;50.958;6.770;2023-07-28T14:40:36;28.90;99.90
2647;DHT22;1333;50.958;6.770;2023-07-28T14:43:03;28.60;99.90
2647;DHT22;1333;50.958;6.770;2023-07-28T14:45:28;28.50;99.90
2647;DHT22;1333;50.958;6.770;2023-07-28T14:47:54;28.50;99.90
2647;DHT22;1333;50.958;6.770;2023-07-28T14:50:20;28.70;99.90
2647;DHT22;1333;50.958;6.770;2023-07-28T14:52:46;29.00;99.90
2647;DHT22;1333;50.958;6.770;2023-07-28T14:55:11;29.20;99.90
2647;DHT22;1333;50.958;6.770;2023-07-28T14:57:37;29.40;99.90
2647;DHT22;1333;50.958;6.770;2023-07-28T15:00:02;29.60;99.90
2647;DHT22;1333;50.958;6.770;2023-07-28T15:02:28;29.70;99.90
2647;DHT22;1333;50.958;6.770;2023-07-28T15:04:54;29.90;99.90
2647;DHT22;1333;50.958;6.770;2023-07-28T15:07:19;30.10;99.90
2647;DHT22;1333;50.958;6.770;2023-07-28T15:09:48;30.20;99.90
2647;DHT22;1333;50.958;6.770;2023-07-28T15:12:13;30.20;99.90
2647;DHT22;1333;50.958;6.770;2023-07-28T15:14:39;30.20;99.90
2647;DHT22;1333;50.958;6.770;2023-07-28T15:17:04;30.00;99.90
2647;DHT22;1333;50.958;6.770;2023-07-28T15:19:30;29.90;99.90
2647;DHT22;1333;50.958;6.770;2023-07-28T15:21:55;29.90;99.90
2647;DHT22;1333;50.958;6.770;2023-07-28T15:24:22;29.90;99.90
2647;DHT22;1333;50.958;6.770;2023-07-28T15:26:47;30.00;99.90
2647;DHT22;1333;50.958;6.770;2023-07-28T15:29:15;30.10;99.90
2647;DHT22;1333;50.958;6.770;2023-07-28T15:31:41;30.00;99.90
2647;DHT22;1333;50.958;6.770;2023-07-28T15:34:06;29.80;99.90
2647;DHT22;1333;50.958;6.770;2023-07-28T15:36:32;29.60;99.90
2647;DHT22;1333;50.958;6.770;2023-07-28T15:38:57;29.50;99.90
2647;DHT22;1333;50.958;6.770;2023-07-28T15:41:24;29.40;99.90
2647;DHT22;1333;50.958;6.770;2023-07-28T15:43:50;29.20;99.90
2647;DHT22;1333;50.958;6.770;2023-07-28T15:46:15;28.80;99.90
2647;DHT22;1333;50.958;6.770;2023-07-28T15:48:41;28.40;99.90
2647;DHT22;1333;50.958;6.770;2023-07-28T15:51:07;28.00;99.90
2647;DHT22;1333;50.958;6.770;2023-07-28T15:53:32;27.60;99.90
2647;DHT22;1333;50.958;6.770;2023-07-28T15:55:58;27.20;99.90
2647;DHT22;1333;50.958;6.770;2023-07-28T15:58:23;26.90;99.90
2647;DHT22;1333;50.958;6.770;2023-07-28T16:00:49;26.80;99.90
2647;DHT22;1333;50.958;6.770;2023-07-28T16:03:14;26.90;99.90
2647;DHT22;1333;50.958;6.770;2023-07-28T16:05:40;27.00;99.90